sensor_id;sensor_type;location;lat;lon;timestamp;P1;durP1;ratioP1;P2;durP2;ratioP2
6832;SDS011;3454;42.654;23.378;2023-11-18T00:00:44;0.30;;;0.30;;
6832;SDS011;3454;42.654;23.378;2023-11-18T00:03:10;0.40;;;0.40;;
6832;SDS011;3454;42.654;23.378;2023-11-18T00:05:35;0.40;;;0.40;;
6832;SDS011;3454;42.654;23.378;2023-11-18T00:08:01;0.43;;;0.33;;
6832;SDS011;3454;42.654;23.378;2023-11-18T00:10:26;0.50;;;0.47;;
6832;SDS011;3454;42.654;23.378;2023-11-18T00:12:52;0.30;;;0.30;;
6832;SDS011;3454;42.654;23.378;2023-11-18T00:15:17;0.70;;;0.53;;
6832;SDS011;3454;42.654;23.378;2023-11-18T00:17:43;0.30;;;0.30;;
6832;SDS011;3454;42.654;23.378;2023-11-18T00:20:09;0.40;;;0.40;;
6832;SDS011;3454;42.654;23.378;2023-11-18T00:22:37;0.70;;;0.40;;
6832;SDS011;3454;42.654;23.378;2023-11-18T00:25:06;0.57;;;0.50;;
6832;SDS011;3454;42.654;23.378;2023-11-18T00:27:35;0.50;;;0.50;;
6832;SDS011;3454;42.654;23.378;2023-11-18T00:30:04;0.53;;;0.53;;
6832;SDS011;3454;42.654;23.378;2023-11-18T00:32:31;0.40;;;0.40;;
6832;SDS011;3454;42.654;23.378;2023-11-18T00:34:57;0.50;;;0.40;;
6832;SDS011;3454;42.654;23.378;2023-11-18T00:37:23;0.50;;;0.30;;
6832;SDS011;3454;42.654;23.378;2023-11-18T00:39:48;0.43;;;0.40;;
6832;SDS011;3454;42.654;23.378;2023-11-18T00:42:14;0.97;;;0.40;;
6832;SDS011;3454;42.654;23.378;2023-11-18T00:44:40;0.43;;;0.43;;
6832;SDS011;3454;42.654;23.378;2023-11-18T00:47:06;0.47;;;0.47;;
6832;SDS011;3454;42.654;23.378;2023-11-18T00:49:31;0.70;;;0.40;;
6832;SDS011;3454;42.654;23.378;2023-11-18T00:51:59;1.27;;;0.53;;
6832;SDS011;3454;42.654;23.378;2023-11-18T00:54:24;0.47;;;0.47;;
6832;SDS011;3454;42.654;23.378;2023-11-18T00:56:50;0.50;;;0.50;;
6832;SDS011;3454;42.654;23.378;2023-11-18T00:59:15;1.13;;;0.60;;
6832;SDS011;3454;42.654;23.378;2023-11-18T01:01:41;0.60;;;0.57;;
6832;SDS011;3454;42.654;23.378;2023-11-18T01:04:08;0.80;;;0.80;;
6832;SDS011;3454;42.654;23.378;2023-11-18T01:06:34;1.27;;;1.17;;
6832;SDS011;3454;42.654;23.378;2023-11-18T01:09:00;0.90;;;0.90;;
6832;SDS011;3454;42.654;23.378;2023-11-18T01:11:26;0.73;;;0.73;;
6832;SDS011;3454;42.654;23.378;2023-11-18T01:13:51;1.30;;;0.77;;
6832;SDS011;3454;42.654;23.378;2023-11-18T01:16:19;0.70;;;0.70;;
6832;SDS011;3454;42.654;23.378;2023-11-18T01:18:45;0.53;;;0.53;;
6832;SDS011;3454;42.654;23.378;2023-11-18T01:21:10;0.67;;;0.67;;
6832;SDS011;3454;42.654;23.378;2023-11-18T01:23:36;0.80;;;0.80;;
6832;SDS011;3454;42.654;23.378;2023-11-18T01:26:03;0.77;;;0.77;;
6832;SDS011;3454;42.654;23.378;2023-11-18T01:28:33;1.00;;;0.90;;
6832;SDS011;3454;42.654;23.378;2023-11-18T01:31:06;0.80;;;0.80;;
6832;SDS011;3454;42.654;23.378;2023-11-18T01:33:40;0.80;;;0.80;;
6832;SDS011;3454;42.654;23.378;2023-11-18T01:36:07;0.83;;;0.83;;
6832;SDS011;3454;42.654;23.378;2023-11-18T01:38:35;1.03;;;0.70;;
6832;SDS011;3454;42.654;23.378;2023-11-18T01:41:04;0.90;;;0.90;;
6832;SDS011;3454;42.654;23.378;2023-11-18T01:43:30;0.90;;;0.90;;
6832;SDS011;3454;42.654;23.378;2023-11-18T01:45:57;0.83;;;0.80;;
6832;SDS011;3454;42.654;23.378;2023-11-18T01:48:27;1.10;;;1.00;;
6832;SDS011;3454;42.654;23.378;2023-11-18T01:50:54;0.80;;;0.80;;
6832;SDS011;3454;42.654;23.378;2023-11-18T01:53:22;0.80;;;0.80;;
6832;SDS011;3454;42.654;23.378;2023-11-18T01:55:49;0.90;;;0.90;;
6832;SDS011;3454;42.654;23.378;2023-11-18T01:58:15;0.73;;;0.73;;
6832;SDS011;3454;42.654;23.378;2023-11-18T02:00:44;1.17;;;1.07;;
6832;SDS011;3454;42.654;23.378;2023-11-18T02:03:14;0.80;;;0.80;;
6832;SDS011;3454;42.654;23.378;2023-11-18T02:05:39;1.10;;;1.00;;
6832;SDS011;3454;42.654;23.378;2023-11-18T02:08:05;0.90;;;0.90;;
6832;SDS011;3454;42.654;23.378;2023-11-18T02:10:33;0.83;;;0.83;;
6832;SDS011;3454;42.654;23.378;2023-11-18T02:15:37;0.90;;;0.90;;
6832;SDS011;3454;42.654;23.378;2023-11-18T02:18:06;0.90;;;0.90;;
6832;SDS011;3454;42.654;23.378;2023-11-18T02:20:36;0.90;;;0.90;;
6832;SDS011;3454;42.654;23.378;2023-11-18T02:23:04;0.93;;;0.90;;
6832;SDS011;3454;42.654;23.378;2023-11-18T02:25:29;0.90;;;0.90;;
6832;SDS011;3454;42.654;23.378;2023-11-18T02:27:59;1.10;;;1.00;;
6832;SDS011;3454;42.654;23.378;2023-11-18T02:30:25;1.10;;;1.00;;
6832;SDS011;3454;42.654;23.378;2023-11-18T02:32:58;1.03;;;1.00;;
6832;SDS011;3454;42.654;23.378;2023-11-18T02:35:31;1.30;;;1.20;;
6832;SDS011;3454;42.654;23.378;2023-11-18T02:38:02;2.10;;;0.90;;
6832;SDS011;3454;42.654;23.378;2023-11-18T02:40:36;1.20;;;1.20;;
6832;SDS011;3454;42.654;23.378;2023-11-18T02:43:06;1.37;;;1.27;;
6832;SDS011;3454;42.654;23.378;2023-11-18T02:45:35;1.40;;;1.30;;
6832;SDS011;3454;42.654;23.378;2023-11-18T02:48:02;1.53;;;1.43;;
6832;SDS011;3454;42.654;23.378;2023-11-18T02:50:29;1.43;;;1.20;;
6832;SDS011;3454;42.654;23.378;2023-11-18T02:52:55;1.30;;;1.10;;
6832;SDS011;3454;42.654;23.378;2023-11-18T02:55:21;1.43;;;1.33;;
6832;SDS011;3454;42.654;23.378;2023-11-18T02:57:48;2.20;;;1.30;;
6832;SDS011;3454;42.654;23.378;2023-11-18T03:00:14;1.13;;;1.03;;
6832;SDS011;3454;42.654;23.378;2023-11-18T03:02:47;1.70;;;1.20;;
6832;SDS011;3454;42.654;23.378;2023-11-18T03:05:15;2.13;;;1.30;;
6832;SDS011;3454;42.654;23.378;2023-11-18T03:07:41;1.63;;;1.40;;
6832;SDS011;3454;42.654;23.378;2023-11-18T03:10:07;2.17;;;1.60;;
6832;SDS011;3454;42.654;23.378;2023-11-18T03:12:45;2.63;;;1.57;;
6832;SDS011;3454;42.654;23.378;2023-11-18T03:15:11;1.70;;;1.60;;
6832;SDS011;3454;42.654;23.378;2023-11-18T03:17:37;2.00;;;1.90;;
6832;SDS011;3454;42.654;23.378;2023-11-18T03:20:03;1.67;;;1.57;;
6832;SDS011;3454;42.654;23.378;2023-11-18T03:22:34;1.63;;;1.53;;
6832;SDS011;3454;42.654;23.378;2023-11-18T03:25:00;3.10;;;2.13;;
6832;SDS011;3454;42.654;23.378;2023-11-18T03:27:26;2.00;;;1.80;;
6832;SDS011;3454;42.654;23.378;2023-11-18T03:29:51;1.80;;;1.67;;
6832;SDS011;3454;42.654;23.378;2023-11-18T03:32:17;1.80;;;1.70;;
6832;SDS011;3454;42.654;23.378;2023-11-18T03:34:42;1.83;;;1.73;;
6832;SDS011;3454;42.654;23.378;2023-11-18T03:37:09;1.97;;;1.87;;
6832;SDS011;3454;42.654;23.378;2023-11-18T03:39:35;3.47;;;1.70;;
6832;SDS011;3454;42.654;23.378;2023-11-18T03:42:00;1.33;;;1.23;;
6832;SDS011;3454;42.654;23.378;2023-11-18T03:44:26;1.87;;;1.63;;
6832;SDS011;3454;42.654;23.378;2023-11-18T03:46:51;1.37;;;1.13;;
6832;SDS011;3454;42.654;23.378;2023-11-18T03:49:17;4.20;;;1.70;;
6832;SDS011;3454;42.654;23.378;2023-11-18T03:51:43;1.70;;;1.50;;
6832;SDS011;3454;42.654;23.378;2023-11-18T03:54:08;1.83;;;1.73;;
6832;SDS011;3454;42.654;23.378;2023-11-18T03:56:34;3.40;;;1.80;;
6832;SDS011;3454;42.654;23.378;2023-11-18T03:59:00;2.20;;;2.00;;
6832;SDS011;3454;42.654;23.378;2023-11-18T04:01:25;1.40;;;1.30;;
6832;SDS011;3454;42.654;23.378;2023-11-18T04:03:52;2.10;;;1.97;;
6832;SDS011;3454;42.654;23.378;2023-11-18T04:06:18;2.07;;;1.83;;
6832;SDS011;3454;42.654;23.378;2023-11-18T04:08:46;1.43;;;1.20;;
6832;SDS011;3454;42.654;23.378;2023-11-18T04:11:12;1.70;;;1.60;;
6832;SDS011;3454;42.654;23.378;2023-11-18T04:13:40;1.77;;;1.67;;
6832;SDS011;3454;42.654;23.378;2023-11-18T04:16:11;1.87;;;1.73;;
6832;SDS011;3454;42.654;23.378;2023-11-18T04:18:44;2.03;;;1.80;;
6832;SDS011;3454;42.654;23.378;2023-11-18T04:21:10;1.80;;;1.70;;
6832;SDS011;3454;42.654;23.378;2023-11-18T04:23:38;2.30;;;1.83;;
6832;SDS011;3454;42.654;23.378;2023-11-18T04:26:04;3.50;;;2.20;;
6832;SDS011;3454;42.654;23.378;2023-11-18T04:28:32;7.97;;;1.70;;
6832;SDS011;3454;42.654;23.378;2023-11-18T04:31:01;2.20;;;2.03;;
6832;SDS011;3454;42.654;23.378;2023-11-18T04:33:28;2.40;;;1.50;;
6832;SDS011;3454;42.654;23.378;2023-11-18T04:35:54;2.67;;;2.10;;
6832;SDS011;3454;42.654;23.378;2023-11-18T04:38:22;2.33;;;1.80;;
6832;SDS011;3454;42.654;23.378;2023-11-18T04:40:48;1.97;;;1.80;;
6832;SDS011;3454;42.654;23.378;2023-11-18T04:43:14;2.10;;;2.00;;
6832;SDS011;3454;42.654;23.378;2023-11-18T04:45:40;2.13;;;1.70;;
6832;SDS011;3454;42.654;23.378;2023-11-18T04:48:07;1.90;;;1.80;;
6832;SDS011;3454;42.654;23.378;2023-11-18T04:50:32;2.03;;;1.83;;
6832;SDS011;3454;42.654;23.378;2023-11-18T04:52:58;1.77;;;1.67;;
6832;SDS011;3454;42.654;23.378;2023-11-18T04:55:33;2.87;;;1.80;;
6832;SDS011;3454;42.654;23.378;2023-11-18T04:58:03;1.70;;;1.60;;
6832;SDS011;3454;42.654;23.378;2023-11-18T05:00:30;1.70;;;1.60;;
6832;SDS011;3454;42.654;23.378;2023-11-18T05:02:59;1.60;;;1.50;;
6832;SDS011;3454;42.654;23.378;2023-11-18T05:05:25;2.10;;;1.57;;
6832;SDS011;3454;42.654;23.378;2023-11-18T05:07:50;4.07;;;1.30;;
6832;SDS011;3454;42.654;23.378;2023-11-18T05:10:16;1.53;;;1.43;;
6832;SDS011;3454;42.654;23.378;2023-11-18T05:12:41;1.80;;;1.70;;
6832;SDS011;3454;42.654;23.378;2023-11-18T05:15:08;1.70;;;1.60;;
6832;SDS011;3454;42.654;23.378;2023-11-18T05:17:35;2.33;;;1.60;;
6832;SDS011;3454;42.654;23.378;2023-11-18T05:20:04;1.13;;;1.03;;
6832;SDS011;3454;42.654;23.378;2023-11-18T05:22:34;2.27;;;1.50;;
6832;SDS011;3454;42.654;23.378;2023-11-18T05:25:01;1.77;;;1.50;;
6832;SDS011;3454;42.654;23.378;2023-11-18T05:27:27;1.93;;;1.77;;
6832;SDS011;3454;42.654;23.378;2023-11-18T05:29:53;2.20;;;1.57;;
6832;SDS011;3454;42.654;23.378;2023-11-18T05:32:26;2.23;;;1.10;;
6832;SDS011;3454;42.654;23.378;2023-11-18T05:34:52;1.93;;;1.43;;
6832;SDS011;3454;42.654;23.378;2023-11-18T05:37:20;1.77;;;1.63;;
6832;SDS011;3454;42.654;23.378;2023-11-18T05:39:46;1.50;;;1.40;;
6832;SDS011;3454;42.654;23.378;2023-11-18T05:42:14;1.70;;;1.47;;
6832;SDS011;3454;42.654;23.378;2023-11-18T05:44:41;1.50;;;1.17;;
6832;SDS011;3454;42.654;23.378;2023-11-18T05:47:08;2.10;;;1.57;;
6832;SDS011;3454;42.654;23.378;2023-11-18T05:49:38;1.73;;;1.50;;
6832;SDS011;3454;42.654;23.378;2023-11-18T05:52:03;1.13;;;1.03;;
6832;SDS011;3454;42.654;23.378;2023-11-18T05:54:30;0.90;;;0.90;;
6832;SDS011;3454;42.654;23.378;2023-11-18T05:56:55;1.37;;;1.27;;
6832;SDS011;3454;42.654;23.378;2023-11-18T05:59:21;0.77;;;0.77;;
6832;SDS011;3454;42.654;23.378;2023-11-18T06:01:48;0.90;;;0.90;;
6832;SDS011;3454;42.654;23.378;2023-11-18T06:04:14;1.00;;;1.00;;
6832;SDS011;3454;42.654;23.378;2023-11-18T06:06:40;4.60;;;1.30;;
6832;SDS011;3454;42.654;23.378;2023-11-18T06:09:06;1.40;;;0.80;;
6832;SDS011;3454;42.654;23.378;2023-11-18T06:11:34;0.80;;;0.80;;
6832;SDS011;3454;42.654;23.378;2023-11-18T06:14:00;0.73;;;0.70;;
6832;SDS011;3454;42.654;23.378;2023-11-18T06:16:26;1.50;;;1.17;;
6832;SDS011;3454;42.654;23.378;2023-11-18T06:18:56;0.60;;;0.60;;
6832;SDS011;3454;42.654;23.378;2023-11-18T06:21:24;0.50;;;0.50;;
6832;SDS011;3454;42.654;23.378;2023-11-18T06:23:56;0.70;;;0.60;;
6832;SDS011;3454;42.654;23.378;2023-11-18T06:26:23;0.83;;;0.70;;
6832;SDS011;3454;42.654;23.378;2023-11-18T06:28:51;2.17;;;1.00;;
6832;SDS011;3454;42.654;23.378;2023-11-18T06:31:18;1.10;;;0.97;;
6832;SDS011;3454;42.654;23.378;2023-11-18T06:33:45;0.73;;;0.73;;
6832;SDS011;3454;42.654;23.378;2023-11-18T06:38:47;0.73;;;0.70;;
6832;SDS011;3454;42.654;23.378;2023-11-18T06:41:17;1.30;;;0.60;;
6832;SDS011;3454;42.654;23.378;2023-11-18T06:43:48;0.47;;;0.47;;
6832;SDS011;3454;42.654;23.378;2023-11-18T06:48:56;1.07;;;0.70;;
6832;SDS011;3454;42.654;23.378;2023-11-18T06:51:26;0.50;;;0.43;;
6832;SDS011;3454;42.654;23.378;2023-11-18T06:53:52;0.70;;;0.70;;
6832;SDS011;3454;42.654;23.378;2023-11-18T06:56:22;0.30;;;0.30;;
6832;SDS011;3454;42.654;23.378;2023-11-18T06:58:51;0.40;;;0.40;;
6832;SDS011;3454;42.654;23.378;2023-11-18T07:01:17;0.50;;;0.50;;
6832;SDS011;3454;42.654;23.378;2023-11-18T07:03:43;1.53;;;1.00;;
6832;SDS011;3454;42.654;23.378;2023-11-18T07:06:11;0.97;;;0.70;;
6832;SDS011;3454;42.654;23.378;2023-11-18T07:08:39;1.17;;;0.60;;
6832;SDS011;3454;42.654;23.378;2023-11-18T07:11:06;0.57;;;0.40;;
6832;SDS011;3454;42.654;23.378;2023-11-18T07:13:32;1.27;;;0.80;;
6832;SDS011;3454;42.654;23.378;2023-11-18T07:16:00;0.80;;;0.50;;
6832;SDS011;3454;42.654;23.378;2023-11-18T07:18:29;0.90;;;0.40;;
6832;SDS011;3454;42.654;23.378;2023-11-18T07:21:00;0.50;;;0.40;;
6832;SDS011;3454;42.654;23.378;2023-11-18T07:23:26;9.53;;;0.70;;
6832;SDS011;3454;42.654;23.378;2023-11-18T07:25:51;0.50;;;0.50;;
6832;SDS011;3454;42.654;23.378;2023-11-18T07:28:18;1.10;;;0.50;;
6832;SDS011;3454;42.654;23.378;2023-11-18T07:30:44;2.50;;;0.70;;
6832;SDS011;3454;42.654;23.378;2023-11-18T07:33:12;0.73;;;0.70;;
6832;SDS011;3454;42.654;23.378;2023-11-18T07:35:47;1.90;;;0.60;;
6832;SDS011;3454;42.654;23.378;2023-11-18T07:38:15;1.60;;;0.77;;
6832;SDS011;3454;42.654;23.378;2023-11-18T07:40:42;0.57;;;0.57;;
6832;SDS011;3454;42.654;23.378;2023-11-18T07:43:11;1.40;;;0.40;;
6832;SDS011;3454;42.654;23.378;2023-11-18T07:45:37;1.07;;;0.53;;
6832;SDS011;3454;42.654;23.378;2023-11-18T07:48:04;0.57;;;0.40;;
6832;SDS011;3454;42.654;23.378;2023-11-18T07:50:34;0.70;;;0.50;;
6832;SDS011;3454;42.654;23.378;2023-11-18T07:53:00;0.73;;;0.60;;
6832;SDS011;3454;42.654;23.378;2023-11-18T07:55:27;0.57;;;0.50;;
6832;SDS011;3454;42.654;23.378;2023-11-18T07:57:53;0.70;;;0.57;;
6832;SDS011;3454;42.654;23.378;2023-11-18T08:00:19;0.60;;;0.60;;
6832;SDS011;3454;42.654;23.378;2023-11-18T08:02:44;0.80;;;0.80;;
6832;SDS011;3454;42.654;23.378;2023-11-18T08:05:10;6.30;;;0.83;;
6832;SDS011;3454;42.654;23.378;2023-11-18T08:07:40;1.47;;;0.80;;
6832;SDS011;3454;42.654;23.378;2023-11-18T08:10:06;0.70;;;0.70;;
6832;SDS011;3454;42.654;23.378;2023-11-18T08:12:37;0.70;;;0.70;;
6832;SDS011;3454;42.654;23.378;2023-11-18T08:15:04;2.20;;;0.90;;
6832;SDS011;3454;42.654;23.378;2023-11-18T08:17:32;0.80;;;0.80;;
6832;SDS011;3454;42.654;23.378;2023-11-18T08:19:59;0.73;;;0.73;;
6832;SDS011;3454;42.654;23.378;2023-11-18T08:22:31;1.07;;;0.77;;
6832;SDS011;3454;42.654;23.378;2023-11-18T08:24:57;1.87;;;0.70;;
6832;SDS011;3454;42.654;23.378;2023-11-18T08:27:22;1.23;;;0.70;;
6832;SDS011;3454;42.654;23.378;2023-11-18T08:29:48;0.43;;;0.43;;
6832;SDS011;3454;42.654;23.378;2023-11-18T08:32:14;1.10;;;1.00;;
6832;SDS011;3454;42.654;23.378;2023-11-18T08:34:39;1.97;;;1.30;;
6832;SDS011;3454;42.654;23.378;2023-11-18T08:37:05;3.30;;;1.43;;
6832;SDS011;3454;42.654;23.378;2023-11-18T08:39:31;0.67;;;0.67;;
6832;SDS011;3454;42.654;23.378;2023-11-18T08:41:57;1.13;;;0.70;;
6832;SDS011;3454;42.654;23.378;2023-11-18T08:44:23;1.43;;;1.17;;
6832;SDS011;3454;42.654;23.378;2023-11-18T08:46:51;3.27;;;0.80;;
6832;SDS011;3454;42.654;23.378;2023-11-18T08:49:20;1.10;;;0.93;;
6832;SDS011;3454;42.654;23.378;2023-11-18T08:51:48;3.67;;;0.80;;
6832;SDS011;3454;42.654;23.378;2023-11-18T08:54:24;0.90;;;0.90;;
6832;SDS011;3454;42.654;23.378;2023-11-18T08:57:02;0.93;;;0.77;;
6832;SDS011;3454;42.654;23.378;2023-11-18T08:59:49;0.53;;;0.53;;
6832;SDS011;3454;42.654;23.378;2023-11-18T09:02:17;0.67;;;0.50;;
6832;SDS011;3454;42.654;23.378;2023-11-18T09:04:42;0.57;;;0.57;;
6832;SDS011;3454;42.654;23.378;2023-11-18T09:07:09;2.37;;;0.60;;
6832;SDS011;3454;42.654;23.378;2023-11-18T09:09:37;1.27;;;0.80;;
6832;SDS011;3454;42.654;23.378;2023-11-18T09:12:05;0.73;;;0.67;;
6832;SDS011;3454;42.654;23.378;2023-11-18T09:14:33;0.50;;;0.50;;
6832;SDS011;3454;42.654;23.378;2023-11-18T09:16:59;0.80;;;0.80;;
6832;SDS011;3454;42.654;23.378;2023-11-18T09:19:25;0.57;;;0.57;;
6832;SDS011;3454;42.654;23.378;2023-11-18T09:21:51;0.80;;;0.60;;
6832;SDS011;3454;42.654;23.378;2023-11-18T09:24:20;1.20;;;0.70;;
6832;SDS011;3454;42.654;23.378;2023-11-18T09:26:49;0.70;;;0.70;;
6832;SDS011;3454;42.654;23.378;2023-11-18T09:29:16;1.93;;;0.67;;
6832;SDS011;3454;42.654;23.378;2023-11-18T09:31:49;0.50;;;0.50;;
6832;SDS011;3454;42.654;23.378;2023-11-18T09:34:15;0.80;;;0.80;;
6832;SDS011;3454;42.654;23.378;2023-11-18T09:36:42;1.30;;;1.00;;
6832;SDS011;3454;42.654;23.378;2023-11-18T09:39:09;2.13;;;0.70;;
6832;SDS011;3454;42.654;23.378;2023-11-18T09:41:49;1.00;;;0.60;;
6832;SDS011;3454;42.654;23.378;2023-11-18T09:44:14;0.97;;;0.80;;
6832;SDS011;3454;42.654;23.378;2023-11-18T09:46:41;0.57;;;0.50;;
6832;SDS011;3454;42.654;23.378;2023-11-18T09:51:58;0.60;;;0.60;;
6832;SDS011;3454;42.654;23.378;2023-11-18T10:00:05;2.37;;;1.63;;
6832;SDS011;3454;42.654;23.378;2023-11-18T10:02:49;1.13;;;0.90;;
6832;SDS011;3454;42.654;23.378;2023-11-18T10:05:15;0.60;;;0.60;;
6832;SDS011;3454;42.654;23.378;2023-11-18T10:07:46;0.70;;;0.70;;
6832;SDS011;3454;42.654;23.378;2023-11-18T10:10:12;1.43;;;0.97;;
6832;SDS011;3454;42.654;23.378;2023-11-18T10:12:44;1.10;;;0.83;;
6832;SDS011;3454;42.654;23.378;2023-11-18T10:15:17;2.87;;;0.67;;
6832;SDS011;3454;42.654;23.378;2023-11-18T10:17:48;0.77;;;0.70;;
6832;SDS011;3454;42.654;23.378;2023-11-18T10:20:43;1.03;;;0.70;;
6832;SDS011;3454;42.654;23.378;2023-11-18T10:23:15;0.60;;;0.60;;
6832;SDS011;3454;42.654;23.378;2023-11-18T10:31:07;1.87;;;0.80;;
6832;SDS011;3454;42.654;23.378;2023-11-18T10:33:40;0.50;;;0.50;;
6832;SDS011;3454;42.654;23.378;2023-11-18T10:36:16;0.97;;;0.83;;
6832;SDS011;3454;42.654;23.378;2023-11-18T10:38:47;3.30;;;0.70;;
6832;SDS011;3454;42.654;23.378;2023-11-18T10:41:18;1.43;;;0.60;;
6832;SDS011;3454;42.654;23.378;2023-11-18T10:43:44;1.23;;;1.10;;
6832;SDS011;3454;42.654;23.378;2023-11-18T10:46:11;1.07;;;0.87;;
6832;SDS011;3454;42.654;23.378;2023-11-18T10:48:45;1.97;;;0.67;;
6832;SDS011;3454;42.654;23.378;2023-11-18T10:51:13;1.03;;;0.63;;
6832;SDS011;3454;42.654;23.378;2023-11-18T10:53:41;0.60;;;0.60;;
6832;SDS011;3454;42.654;23.378;2023-11-18T10:56:21;1.50;;;0.67;;
6832;SDS011;3454;42.654;23.378;2023-11-18T10:59:11;1.40;;;1.13;;
6832;SDS011;3454;42.654;23.378;2023-11-18T11:01:41;0.70;;;0.70;;
6832;SDS011;3454;42.654;23.378;2023-11-18T11:04:08;1.37;;;1.10;;
6832;SDS011;3454;42.654;23.378;2023-11-18T11:06:40;0.77;;;0.60;;
6832;SDS011;3454;42.654;23.378;2023-11-18T11:09:07;2.60;;;1.30;;
6832;SDS011;3454;42.654;23.378;2023-11-18T11:11:39;4.53;;;1.57;;
6832;SDS011;3454;42.654;23.378;2023-11-18T11:14:12;2.37;;;0.70;;
6832;SDS011;3454;42.654;23.378;2023-11-18T11:16:44;0.70;;;0.70;;
6832;SDS011;3454;42.654;23.378;2023-11-18T11:19:25;1.57;;;0.90;;
6832;SDS011;3454;42.654;23.378;2023-11-18T11:22:05;0.50;;;0.50;;
6832;SDS011;3454;42.654;23.378;2023-11-18T11:24:40;1.27;;;0.60;;
6832;SDS011;3454;42.654;23.378;2023-11-18T11:27:32;0.60;;;0.60;;
6832;SDS011;3454;42.654;23.378;2023-11-18T11:30:16;0.63;;;0.63;;
6832;SDS011;3454;42.654;23.378;2023-11-18T11:35:23;1.40;;;1.00;;
6832;SDS011;3454;42.654;23.378;2023-11-18T11:37:53;0.83;;;0.83;;
6832;SDS011;3454;42.654;23.378;2023-11-18T11:40:28;2.13;;;0.70;;
6832;SDS011;3454;42.654;23.378;2023-11-18T11:42:55;0.73;;;0.70;;
6832;SDS011;3454;42.654;23.378;2023-11-18T11:45:22;0.90;;;0.70;;
6832;SDS011;3454;42.654;23.378;2023-11-18T11:47:53;2.17;;;0.77;;
6832;SDS011;3454;42.654;23.378;2023-11-18T11:50:38;3.00;;;0.80;;
6832;SDS011;3454;42.654;23.378;2023-11-18T11:53:15;1.63;;;0.57;;
6832;SDS011;3454;42.654;23.378;2023-11-18T11:55:46;0.63;;;0.63;;
6832;SDS011;3454;42.654;23.378;2023-11-18T11:58:29;3.67;;;0.83;;
6832;SDS011;3454;42.654;23.378;2023-11-18T12:00:59;3.33;;;1.10;;
6832;SDS011;3454;42.654;23.378;2023-11-18T12:03:26;1.00;;;0.70;;
6832;SDS011;3454;42.654;23.378;2023-11-18T12:06:01;0.70;;;0.70;;
6832;SDS011;3454;42.654;23.378;2023-11-18T12:08:34;0.80;;;0.73;;
6832;SDS011;3454;42.654;23.378;2023-11-18T12:11:01;0.87;;;0.87;;
6832;SDS011;3454;42.654;23.378;2023-11-18T12:13:28;1.97;;;0.90;;
6832;SDS011;3454;42.654;23.378;2023-11-18T12:15:59;1.00;;;0.70;;
6832;SDS011;3454;42.654;23.378;2023-11-18T12:18:35;0.87;;;0.87;;
6832;SDS011;3454;42.654;23.378;2023-11-18T12:21:01;0.93;;;0.90;;
6832;SDS011;3454;42.654;23.378;2023-11-18T12:23:28;1.23;;;1.00;;
6832;SDS011;3454;42.654;23.378;2023-11-18T12:25:56;1.40;;;1.30;;
6832;SDS011;3454;42.654;23.378;2023-11-18T12:28:26;2.23;;;0.90;;
6832;SDS011;3454;42.654;23.378;2023-11-18T12:30:55;1.27;;;1.07;;
6832;SDS011;3454;42.654;23.378;2023-11-18T12:33:52;1.73;;;1.23;;
6832;SDS011;3454;42.654;23.378;2023-11-18T12:41:38;1.37;;;0.80;;
6832;SDS011;3454;42.654;23.378;2023-11-18T12:49:15;1.93;;;0.93;;
6832;SDS011;3454;42.654;23.378;2023-11-18T12:51:42;2.60;;;1.10;;
6832;SDS011;3454;42.654;23.378;2023-11-18T12:54:09;2.17;;;1.63;;
6832;SDS011;3454;42.654;23.378;2023-11-18T12:56:37;1.63;;;1.23;;
6832;SDS011;3454;42.654;23.378;2023-11-18T12:59:04;1.47;;;1.00;;
6832;SDS011;3454;42.654;23.378;2023-11-18T13:01:34;3.90;;;1.07;;
6832;SDS011;3454;42.654;23.378;2023-11-18T13:04:02;1.87;;;1.13;;
6832;SDS011;3454;42.654;23.378;2023-11-18T13:06:28;1.70;;;1.17;;
6832;SDS011;3454;42.654;23.378;2023-11-18T13:08:54;4.40;;;1.07;;
6832;SDS011;3454;42.654;23.378;2023-11-18T13:11:23;1.30;;;1.20;;
6832;SDS011;3454;42.654;23.378;2023-11-18T13:13:51;6.97;;;1.80;;
6832;SDS011;3454;42.654;23.378;2023-11-18T13:16:17;1.20;;;1.10;;
6832;SDS011;3454;42.654;23.378;2023-11-18T13:18:46;0.90;;;0.90;;
6832;SDS011;3454;42.654;23.378;2023-11-18T13:21:17;1.73;;;1.20;;
6832;SDS011;3454;42.654;23.378;2023-11-18T13:23:47;1.97;;;1.60;;
6832;SDS011;3454;42.654;23.378;2023-11-18T13:26:15;1.40;;;1.30;;
6832;SDS011;3454;42.654;23.378;2023-11-18T13:28:41;2.07;;;1.23;;
6832;SDS011;3454;42.654;23.378;2023-11-18T13:31:11;1.20;;;1.10;;
6832;SDS011;3454;42.654;23.378;2023-11-18T13:33:42;1.30;;;1.20;;
6832;SDS011;3454;42.654;23.378;2023-11-18T13:36:13;1.50;;;1.30;;
6832;SDS011;3454;42.654;23.378;2023-11-18T13:38:40;6.70;;;1.33;;
6832;SDS011;3454;42.654;23.378;2023-11-18T13:41:07;2.33;;;1.60;;
6832;SDS011;3454;42.654;23.378;2023-11-18T13:43:41;4.30;;;1.33;;
6832;SDS011;3454;42.654;23.378;2023-11-18T13:46:18;5.70;;;1.53;;
6832;SDS011;3454;42.654;23.378;2023-11-18T13:48:48;1.53;;;1.43;;
6832;SDS011;3454;42.654;23.378;2023-11-18T13:51:16;1.67;;;1.57;;
6832;SDS011;3454;42.654;23.378;2023-11-18T13:53:45;2.90;;;2.03;;
6832;SDS011;3454;42.654;23.378;2023-11-18T13:56:12;2.00;;;1.53;;
6832;SDS011;3454;42.654;23.378;2023-11-18T13:58:42;1.33;;;1.27;;
6832;SDS011;3454;42.654;23.378;2023-11-18T14:01:11;1.40;;;1.30;;
6832;SDS011;3454;42.654;23.378;2023-11-18T14:03:40;4.60;;;1.73;;
6832;SDS011;3454;42.654;23.378;2023-11-18T14:06:09;3.47;;;1.40;;
6832;SDS011;3454;42.654;23.378;2023-11-18T14:08:43;2.60;;;1.57;;
6832;SDS011;3454;42.654;23.378;2023-11-18T14:11:10;3.83;;;1.83;;
6832;SDS011;3454;42.654;23.378;2023-11-18T14:13:36;3.30;;;2.23;;
6832;SDS011;3454;42.654;23.378;2023-11-18T14:16:02;5.13;;;2.50;;
6832;SDS011;3454;42.654;23.378;2023-11-18T14:18:29;3.70;;;2.07;;
6832;SDS011;3454;42.654;23.378;2023-11-18T14:20:55;3.20;;;2.70;;
6832;SDS011;3454;42.654;23.378;2023-11-18T14:23:22;3.13;;;2.00;;
6832;SDS011;3454;42.654;23.378;2023-11-18T14:25:48;2.23;;;1.80;;
6832;SDS011;3454;42.654;23.378;2023-11-18T14:28:15;3.13;;;2.43;;
6832;SDS011;3454;42.654;23.378;2023-11-18T14:30:41;3.13;;;2.00;;
6832;SDS011;3454;42.654;23.378;2023-11-18T14:33:07;2.27;;;1.80;;
6832;SDS011;3454;42.654;23.378;2023-11-18T14:35:33;4.00;;;2.70;;
6832;SDS011;3454;42.654;23.378;2023-11-18T14:38:02;2.83;;;2.03;;
6832;SDS011;3454;42.654;23.378;2023-11-18T14:40:28;2.57;;;1.77;;
6832;SDS011;3454;42.654;23.378;2023-11-18T14:42:54;2.33;;;2.00;;
6832;SDS011;3454;42.654;23.378;2023-11-18T14:45:20;2.77;;;1.83;;
6832;SDS011;3454;42.654;23.378;2023-11-18T14:47:46;2.00;;;1.80;;
6832;SDS011;3454;42.654;23.378;2023-11-18T14:50:19;4.27;;;2.33;;
6832;SDS011;3454;42.654;23.378;2023-11-18T14:52:49;2.03;;;1.83;;
6832;SDS011;3454;42.654;23.378;2023-11-18T14:55:28;7.47;;;2.07;;
6832;SDS011;3454;42.654;23.378;2023-11-18T14:57:55;2.23;;;2.03;;
6832;SDS011;3454;42.654;23.378;2023-11-18T15:00:23;2.00;;;1.80;;
6832;SDS011;3454;42.654;23.378;2023-11-18T15:02:53;3.13;;;1.93;;
6832;SDS011;3454;42.654;23.378;2023-11-18T15:05:20;1.90;;;1.80;;
6832;SDS011;3454;42.654;23.378;2023-11-18T15:07:51;3.57;;;2.00;;
6832;SDS011;3454;42.654;23.378;2023-11-18T15:10:18;3.90;;;1.93;;
6832;SDS011;3454;42.654;23.378;2023-11-18T15:12:49;2.73;;;2.50;;
6832;SDS011;3454;42.654;23.378;2023-11-18T15:15:21;4.30;;;1.93;;
6832;SDS011;3454;42.654;23.378;2023-11-18T15:17:49;3.00;;;2.27;;
6832;SDS011;3454;42.654;23.378;2023-11-18T15:20:16;3.23;;;2.23;;
6832;SDS011;3454;42.654;23.378;2023-11-18T15:22:44;3.07;;;2.30;;
6832;SDS011;3454;42.654;23.378;2023-11-18T15:25:10;2.47;;;1.97;;
6832;SDS011;3454;42.654;23.378;2023-11-18T15:27:38;1.80;;;1.70;;
6832;SDS011;3454;42.654;23.378;2023-11-18T15:30:05;2.87;;;2.30;;
6832;SDS011;3454;42.654;23.378;2023-11-18T15:32:35;2.90;;;1.97;;
6832;SDS011;3454;42.654;23.378;2023-11-18T15:35:10;2.00;;;1.80;;
6832;SDS011;3454;42.654;23.378;2023-11-18T15:37:44;2.90;;;2.10;;
6832;SDS011;3454;42.654;23.378;2023-11-18T15:40:15;2.43;;;2.07;;
6832;SDS011;3454;42.654;23.378;2023-11-18T15:42:44;5.53;;;2.20;;